createdAt,value
2022-09-04T00:01:11.568Z,10.56
2022-09-04T00:04:40.803Z,10.50
2022-09-04T00:08:10.374Z,10.40
2022-09-04T00:11:42.224Z,10.37
2022-09-04T00:14:57.926Z,10.25
2022-09-04T00:18:18.744Z,10.16
2022-09-04T00:21:44.068Z,10.13
2022-09-04T00:25:12.232Z,10.10
2022-09-04T00:28:37.318Z,10.13
2022-09-04T00:31:55.398Z,10.10
2022-09-04T00:35:16.310Z,10.08
2022-09-04T00:38:50.080Z,10.08
2022-09-04T00:42:26.412Z,10.25
2022-09-04T00:45:53.667Z,10.25
2022-09-04T00:49:36.710Z,10.23
2022-09-04T00:53:11.834Z,10.28
2022-09-04T00:56:55.802Z,10.33
2022-09-04T01:00:17.025Z,10.40
2022-09-04T01:03:46.201Z,10.35
2022-09-04T01:07:26.912Z,10.37
2022-09-04T01:10:50.424Z,10.44
2022-09-04T01:14:25.596Z,10.48
2022-09-04T01:17:54.585Z,10.47
2022-09-04T01:21:34.702Z,10.43
2022-09-04T01:25:08.729Z,10.33
2022-09-04T01:28:32.677Z,10.20
2022-09-04T01:31:56.093Z,10.26
2022-09-04T01:35:18.350Z,10.43
2022-09-04T01:38:42.333Z,10.40
2022-09-04T01:42:03.936Z,10.44
2022-09-04T01:45:22.340Z,10.53
2022-09-04T01:48:45.386Z,10.59
2022-09-04T01:52:26.079Z,10.50
2022-09-04T01:55:46.192Z,10.44
2022-09-04T01:59:05.003Z,10.46
2022-09-04T02:02:29.560Z,10.53
2022-09-04T02:05:55.283Z,10.62
2022-09-04T02:09:26.420Z,10.70
2022-09-04T02:12:51.316Z,10.66
2022-09-04T02:16:16.403Z,10.71
2022-09-04T02:19:44.854Z,10.75
2022-09-04T02:23:13.963Z,10.86
2022-09-04T02:26:31.544Z,10.88
2022-09-04T02:29:51.757Z,10.90
2022-09-04T02:33:15.380Z,10.81
2022-09-04T02:36:40.624Z,10.81
2022-09-04T02:40:06.209Z,10.75
2022-09-04T02:43:37.643Z,10.56
2022-09-04T02:47:07.998Z,10.54
2022-09-04T02:50:39.183Z,10.45
2022-09-04T02:54:06.005Z,10.52
2022-09-04T02:57:39.647Z,10.65
2022-09-04T03:00:59.745Z,10.64
2022-09-04T03:04:18.561Z,10.59
2022-09-04T03:07:35.986Z,10.64
2022-09-04T03:10:56.617Z,10.68
2022-09-04T03:14:12.839Z,10.51
2022-09-04T03:17:31.083Z,10.47
2022-09-04T03:20:49.667Z,10.57
2022-09-04T03:24:08.041Z,10.68
2022-09-04T03:27:21.863Z,10.57
2022-09-04T03:30:30.610Z,10.52
2022-09-04T03:33:48.745Z,10.51
2022-09-04T03:37:21.468Z,10.58
2022-09-04T03:40:49.627Z,10.46
2022-09-04T03:44:27.950Z,10.51
2022-09-04T03:47:57.847Z,10.56
2022-09-04T03:51:24.604Z,10.49
2022-09-04T03:55:11.435Z,10.56
2022-09-04T03:58:31.271Z,10.63
2022-09-04T04:01:59.838Z,10.70
2022-09-04T04:05:39.963Z,10.53
2022-09-04T04:09:24.180Z,10.63
2022-09-04T04:13:12.652Z,10.44
2022-09-04T04:16:55.978Z,10.39
2022-09-04T04:20:32.557Z,10.40
2022-09-04T04:24:22.481Z,10.50
2022-09-04T04:27:58.259Z,10.48
2022-09-04T04:31:23.254Z,10.54
2022-09-04T04:34:48.721Z,10.47
2022-09-04T04:38:21.143Z,10.54
2022-09-04T04:42:18.540Z,10.71
2022-09-04T04:45:55.183Z,10.76
2022-09-04T04:49:29.145Z,10.78
2022-09-04T04:52:56.355Z,10.88
2022-09-04T04:56:16.919Z,10.99
2022-09-04T04:59:38.083Z,11.03
2022-09-04T05:03:07.951Z,11.24
2022-09-04T05:06:29.333Z,11.29
2022-09-04T05:09:50.963Z,11.33
2022-09-04T05:13:18.647Z,11.27
2022-09-04T05:16:51.105Z,11.27
2022-09-04T05:20:39.393Z,11.44
2022-09-04T05:24:01.081Z,11.42
2022-09-04T05:27:44.824Z,11.44
2022-09-04T05:31:07.718Z,11.42
2022-09-04T05:34:30.449Z,11.43
2022-09-04T05:37:53.717Z,11.27
2022-09-04T05:41:15.301Z,11.25
2022-09-04T05:44:54.581Z,11.30
2022-09-04T05:48:26.435Z,11.50
2022-09-04T05:51:58.105Z,11.48
2022-09-04T05:55:54.677Z,11.52
2022-09-04T05:59:44.282Z,11.38
2022-09-04T06:03:36.812Z,11.47
2022-09-04T06:07:00.094Z,11.45
2022-09-04T06:10:22.208Z,11.51
2022-09-04T06:14:11.335Z,11.46
2022-09-04T06:17:45.682Z,11.49
2022-09-04T06:21:37.126Z,11.65
2022-09-04T06:25:27.359Z,11.78
2022-09-04T06:29:20.803Z,12.74
2022-09-04T06:32:59.102Z,12.70
2022-09-04T06:36:53.751Z,12.87
2022-09-04T06:40:28.589Z,12.66
2022-09-04T06:43:50.199Z,12.44
2022-09-04T06:47:31.748Z,12.45
2022-09-04T06:50:59.154Z,12.92
2022-09-04T06:54:32.105Z,12.99
2022-09-04T06:58:24.993Z,13.13
2022-09-04T07:01:51.059Z,13.19
2022-09-04T07:05:19.985Z,13.52
2022-09-04T07:08:57.771Z,12.96
2022-09-04T07:12:43.512Z,13.04
2022-09-04T07:16:26.078Z,13.59
2022-09-04T07:20:22.941Z,13.43
2022-09-04T07:23:50.943Z,13.03
2022-09-04T07:27:19.909Z,13.18
2022-09-04T07:30:38.796Z,13.31
2022-09-04T07:34:01.032Z,12.83
2022-09-04T07:37:23.644Z,12.85
2022-09-04T07:40:47.018Z,12.87
2022-09-04T07:44:13.327Z,12.52
2022-09-04T07:47:36.150Z,12.70
2022-09-04T07:51:05.067Z,12.71
2022-09-04T07:54:41.680Z,12.86
2022-09-04T07:58:25.073Z,13.14
2022-09-04T08:02:01.793Z,12.80
2022-09-04T08:05:34.671Z,12.37
2022-09-04T08:09:32.641Z,12.41
2022-09-04T08:13:14.352Z,12.53
2022-09-04T08:16:35.547Z,12.63
2022-09-04T08:19:56.185Z,12.55
2022-09-04T08:23:29.618Z,12.49
2022-09-04T08:26:51.020Z,12.23
2022-09-04T08:30:08.318Z,12.27
2022-09-04T08:33:49.566Z,12.28
2022-09-04T08:37:20.405Z,12.47
2022-09-04T08:41:19.059Z,12.55
2022-09-04T08:45:26.775Z,12.33
2022-09-04T08:49:21.570Z,12.39
2022-09-04T08:53:21.116Z,12.16
2022-09-04T08:56:48.695Z,11.83
2022-09-04T09:00:14.427Z,12.10
2022-09-04T09:04:12.466Z,12.18
2022-09-04T09:08:13.654Z,12.48
2022-09-04T09:12:12.825Z,12.00
2022-09-04T09:16:26.503Z,12.23
2022-09-04T09:19:57.981Z,12.32
2022-09-04T09:23:23.182Z,12.43
2022-09-04T09:26:31.954Z,12.27
2022-09-04T09:30:10.349Z,12.14
2022-09-04T09:34:02.716Z,12.17
2022-09-04T09:37:41.988Z,12.35
2022-09-04T09:41:42.208Z,12.21
2022-09-04T09:45:38.042Z,11.95
2022-09-04T09:49:44.815Z,11.84
2022-09-04T09:53:52.009Z,11.72
2022-09-04T09:57:52.552Z,11.95
2022-09-04T10:01:36.660Z,12.11
2022-09-04T10:05:30.313Z,11.81
2022-09-04T10:09:37.572Z,11.79
2022-09-04T10:13:37.450Z,12.00
2022-09-04T10:17:21.526Z,12.02
2022-09-04T10:21:26.534Z,12.09
2022-09-04T10:25:42.179Z,12.36
2022-09-04T10:29:29.546Z,12.11
2022-09-04T10:33:31.679Z,12.23
2022-09-04T10:36:57.562Z,12.21
2022-09-04T10:40:46.957Z,12.34
2022-09-04T10:44:33.435Z,12.56
2022-09-04T10:48:43.082Z,13.09
2022-09-04T10:52:58.040Z,13.34
2022-09-04T10:56:30.217Z,13.53
2022-09-04T11:00:05.615Z,13.52
2022-09-04T11:03:46.476Z,13.30
2022-09-04T11:07:30.531Z,13.38
2022-09-04T11:10:56.812Z,13.42
2022-09-04T11:14:52.395Z,13.39
2022-09-04T11:18:45.734Z,13.35
2022-09-04T11:22:51.873Z,13.19
2022-09-04T11:27:06.029Z,13.15
2022-09-04T11:30:20.612Z,12.64
2022-09-04T11:34:33.887Z,12.46
2022-09-04T11:38:11.837Z,12.79
2022-09-04T11:42:08.566Z,12.95
2022-09-04T11:45:59.878Z,13.47
2022-09-04T11:49:50.116Z,13.85
2022-09-04T11:54:00.613Z,13.95
2022-09-04T11:57:21.117Z,14.28
2022-09-04T12:00:28.608Z,14.33
2022-09-04T12:04:23.471Z,14.45
2022-09-04T12:07:51.990Z,14.22
2022-09-04T12:11:44.352Z,14.35
2022-09-04T12:15:55.934Z,14.50
2022-09-04T12:19:54.864Z,14.51
2022-09-04T12:23:35.562Z,14.11
2022-09-04T12:27:34.145Z,14.13
2022-09-04T12:31:09.162Z,13.90
2022-09-04T12:34:56.454Z,14.27
2022-09-04T12:38:37.829Z,14.28
2022-09-04T12:42:00.898Z,14.84
2022-09-04T12:45:24.716Z,15.80
2022-09-04T12:48:46.004Z,16.43
2022-09-04T12:52:10.914Z,16.63
2022-09-04T12:55:33.394Z,16.21
2022-09-04T12:59:18.974Z,16.39
2022-09-04T13:02:53.340Z,16.96
2022-09-04T13:06:27.451Z,17.72
2022-09-04T13:09:53.515Z,18.14
2022-09-04T13:13:21.537Z,17.80
2022-09-04T13:16:51.157Z,16.88
2022-09-04T13:20:19.322Z,17.01
2022-09-04T13:23:57.509Z,17.62
2022-09-04T13:27:36.509Z,16.40
2022-09-04T13:31:06.654Z,16.35
2022-09-04T13:34:29.555Z,16.97
2022-09-04T13:37:58.572Z,17.20
2022-09-04T13:41:51.389Z,17.30
2022-09-04T13:45:13.324Z,17.09
2022-09-04T13:48:42.777Z,17.30
2022-09-04T13:52:02.652Z,17.16
2022-09-04T13:55:21.434Z,16.94
2022-09-04T13:58:35.874Z,17.12
2022-09-04T14:01:52.002Z,16.69
2022-09-04T14:05:08.992Z,16.91
2022-09-04T14:08:21.430Z,17.16
2022-09-04T14:12:18.792Z,17.29
2022-09-04T14:16:02.056Z,17.31
2022-09-04T14:19:47.479Z,16.46
2022-09-04T14:23:13.417Z,16.23
2022-09-04T14:26:40.584Z,16.38
2022-09-04T14:30:17.346Z,16.81
2022-09-04T14:33:40.771Z,16.86
2022-09-04T14:37:00.335Z,17.23
2022-09-04T14:40:19.456Z,17.41
2022-09-04T14:43:59.667Z,17.38
2022-09-04T14:47:26.824Z,17.49
2022-09-04T14:50:46.708Z,17.25
2022-09-04T14:53:59.170Z,16.64
2022-09-04T14:57:21.419Z,16.31
2022-09-04T15:00:30.359Z,16.43
2022-09-04T15:03:49.161Z,16.78
2022-09-04T15:07:12.027Z,17.20
2022-09-04T15:10:47.957Z,17.46
2022-09-04T15:14:19.015Z,17.32
2022-09-04T15:17:40.955Z,17.34
2022-09-04T15:21:03.611Z,17.14
2022-09-04T15:24:31.173Z,17.40
2022-09-04T15:27:49.778Z,17.17
2022-09-04T15:31:18.702Z,17.17
2022-09-04T15:34:36.896Z,17.19
2022-09-04T15:37:48.348Z,16.76
2022-09-04T15:41:17.093Z,16.65
2022-09-04T15:44:30.580Z,16.64
2022-09-04T15:48:18.356Z,16.58
2022-09-04T15:51:44.565Z,16.48
2022-09-04T15:55:14.010Z,16.67
2022-09-04T15:58:34.525Z,16.89
2022-09-04T16:01:53.072Z,16.82
2022-09-04T16:05:20.565Z,16.42
2022-09-04T16:08:45.295Z,16.14
2022-09-04T16:12:12.620Z,15.82
2022-09-04T16:15:30.971Z,15.91
2022-09-04T16:18:58.958Z,16.06
2022-09-04T16:22:22.829Z,16.20
2022-09-04T16:25:38.610Z,16.21
2022-09-04T16:28:56.078Z,16.46
2022-09-04T16:32:02.725Z,16.57
2022-09-04T16:35:21.565Z,16.53
2022-09-04T16:38:39.598Z,16.09
2022-09-04T16:41:57.836Z,16.16
2022-09-04T16:45:15.662Z,16.39
2022-09-04T16:48:40.092Z,16.40
2022-09-04T16:51:58.916Z,16.39
2022-09-04T16:55:16.630Z,16.51
2022-09-04T16:58:54.930Z,16.56
2022-09-04T17:02:08.976Z,16.43
2022-09-04T17:05:35.243Z,16.28
2022-09-04T17:08:52.962Z,16.15
2022-09-04T17:12:24.620Z,15.84
2022-09-04T17:15:53.858Z,15.70
2022-09-04T17:19:02.904Z,15.54
2022-09-04T17:28:54.763Z,15.50
2022-09-04T17:29:16.888Z,15.48
2022-09-04T17:30:02.228Z,15.53
2022-09-04T17:40:40.547Z,15.72
2022-09-04T17:40:43.842Z,15.67
2022-09-04T17:41:35.844Z,15.71
2022-09-04T17:45:01.627Z,15.77
2022-09-04T17:48:27.123Z,15.59
2022-09-04T17:51:36.028Z,15.28
2022-09-04T17:54:48.896Z,14.92
2022-09-04T17:58:11.890Z,15.02
2022-09-04T18:01:29.513Z,15.14
2022-09-04T18:04:53.531Z,15.14
2022-09-04T18:08:12.136Z,15.17
2022-09-04T18:11:30.124Z,15.20
2022-09-04T18:15:25.268Z,15.22
2022-09-04T18:18:41.282Z,14.84
2022-09-04T18:22:26.460Z,14.84
2022-09-04T18:25:51.396Z,14.35
2022-09-04T18:29:55.151Z,14.19
2022-09-04T18:37:20.114Z,14.34
2022-09-04T18:37:23.206Z,14.49
2022-09-04T18:40:43.068Z,14.43
2022-09-04T18:50:23.755Z,14.22
2022-09-04T18:50:33.642Z,14.21
2022-09-04T18:51:30.886Z,14.28
2022-09-04T18:54:47.192Z,14.54
2022-09-04T18:58:21.023Z,14.59
2022-09-04T19:01:47.312Z,14.71
2022-09-04T19:05:00.600Z,14.57
2022-09-04T19:08:16.012Z,14.48
2022-09-04T19:11:34.483Z,14.64
2022-09-04T19:14:49.319Z,14.74
2022-09-04T19:18:08.660Z,14.91
2022-09-04T19:21:41.801Z,14.97
2022-09-04T19:25:08.688Z,15.02
2022-09-04T19:28:21.954Z,15.06
2022-09-04T19:31:41.991Z,15.07
2022-09-04T19:35:06.565Z,15.11
2022-09-04T19:42:10.801Z,15.13
2022-09-04T19:46:01.427Z,15.16
2022-09-04T19:46:26.266Z,15.22
2022-09-04T19:53:12.854Z,15.22
2022-09-04T19:53:33.441Z,15.26
2022-09-04T19:56:56.632Z,15.31
2022-09-04T20:00:42.302Z,15.26
2022-09-04T20:03:54.402Z,15.21
2022-09-04T20:07:09.302Z,15.19
2022-09-04T20:10:30.982Z,15.17
2022-09-04T20:13:50.707Z,15.03
2022-09-04T20:17:22.325Z,14.81
2022-09-04T20:20:56.446Z,14.80
2022-09-04T20:24:17.575Z,14.66
2022-09-04T20:27:37.935Z,14.71
2022-09-04T20:31:03.883Z,14.66
2022-09-04T20:34:49.729Z,14.56
2022-09-04T20:38:23.190Z,14.73
2022-09-04T20:41:50.556Z,14.80
2022-09-04T20:47:46.287Z,14.82
2022-09-04T20:52:54.190Z,14.79
2022-09-04T20:53:09.583Z,14.78
2022-09-04T20:57:48.295Z,14.84
2022-09-04T21:03:08.102Z,14.87
2022-09-04T21:04:05.660Z,14.88
2022-09-04T21:07:29.937Z,14.80
2022-09-04T21:10:47.176Z,14.69
2022-09-04T21:14:02.281Z,14.55
2022-09-04T21:18:08.493Z,14.40
2022-09-04T21:21:52.731Z,14.25
2022-09-04T21:25:33.793Z,14.18
2022-09-04T21:29:27.831Z,14.16
2022-09-04T21:32:58.682Z,14.11
2022-09-04T21:36:36.150Z,14.14
2022-09-04T21:40:51.286Z,14.17
2022-09-04T21:44:34.683Z,14.14
2022-09-04T21:48:25.618Z,14.16
2022-09-04T21:52:21.181Z,13.96
2022-09-04T21:57:50.459Z,13.83
2022-09-04T22:02:43.461Z,13.86
2022-09-04T22:03:42.472Z,13.80
2022-09-04T22:10:21.701Z,13.78
2022-09-04T22:13:29.612Z,13.82
2022-09-04T22:14:50.488Z,13.87
2022-09-04T22:18:57.483Z,13.95
2022-09-04T22:22:36.063Z,13.82
2022-09-04T22:26:08.556Z,13.80
2022-09-04T22:30:08.526Z,13.95
2022-09-04T22:34:15.650Z,13.98
2022-09-04T22:38:14.961Z,13.92
2022-09-04T22:42:20.294Z,13.89
2022-09-04T22:46:30.748Z,13.80
2022-09-04T22:50:11.964Z,13.79
2022-09-04T22:54:09.801Z,13.81
2022-09-04T22:57:27.507Z,13.73
2022-09-04T23:01:03.316Z,13.63
2022-09-04T23:04:53.468Z,13.66
2022-09-04T23:13:49.353Z,13.61
2022-09-04T23:14:01.605Z,13.63
2022-09-04T23:17:09.529Z,13.68
2022-09-04T23:26:32.321Z,13.67
2022-09-04T23:26:45.336Z,13.76
2022-09-04T23:28:57.800Z,13.75
2022-09-04T23:32:36.824Z,13.74
2022-09-04T23:36:04.376Z,13.78
2022-09-04T23:40:02.201Z,13.74
2022-09-04T23:44:09.417Z,13.73
2022-09-04T23:47:56.045Z,13.69
2022-09-04T23:51:26.180Z,13.68
2022-09-04T23:55:15.646Z,13.60
2022-09-04T23:59:10.618Z,13.51
